sensor_id;sensor_type;location;lat;lon;timestamp;P1;durP1;ratioP1;P2;durP2;ratioP2
5587;SDS011;2816;49.778;9.986;2024-01-16T00:00:59;5.40;;;2.80;;
5587;SDS011;2816;49.778;9.986;2024-01-16T00:03:27;4.90;;;2.50;;
5587;SDS011;2816;49.778;9.986;2024-01-16T00:05:54;11.33;;;3.00;;
5587;SDS011;2816;49.778;9.986;2024-01-16T00:08:21;7.43;;;2.50;;
5587;SDS011;2816;49.778;9.986;2024-01-16T00:10:47;3.73;;;2.40;;
5587;SDS011;2816;49.778;9.986;2024-01-16T00:13:14;5.60;;;2.70;;
5587;SDS011;2816;49.778;9.986;2024-01-16T00:15:42;6.13;;;2.20;;
5587;SDS011;2816;49.778;9.986;2024-01-16T00:18:09;3.17;;;2.40;;
5587;SDS011;2816;49.778;9.986;2024-01-16T00:20:37;4.80;;;2.33;;
5587;SDS011;2816;49.778;9.986;2024-01-16T00:23:04;4.50;;;2.60;;
5587;SDS011;2816;49.778;9.986;2024-01-16T00:25:31;3.33;;;2.20;;
5587;SDS011;2816;49.778;9.986;2024-01-16T00:27:58;4.00;;;2.40;;
5587;SDS011;2816;49.778;9.986;2024-01-16T00:30:25;7.50;;;1.90;;
5587;SDS011;2816;49.778;9.986;2024-01-16T00:32:52;3.47;;;2.17;;
5587;SDS011;2816;49.778;9.986;2024-01-16T00:35:18;4.73;;;1.83;;
5587;SDS011;2816;49.778;9.986;2024-01-16T00:37:47;6.80;;;2.40;;
5587;SDS011;2816;49.778;9.986;2024-01-16T00:40:14;7.80;;;3.37;;
5587;SDS011;2816;49.778;9.986;2024-01-16T00:42:41;2.67;;;2.47;;
5587;SDS011;2816;49.778;9.986;2024-01-16T00:45:07;5.67;;;3.17;;
5587;SDS011;2816;49.778;9.986;2024-01-16T00:47:34;6.40;;;3.07;;
5587;SDS011;2816;49.778;9.986;2024-01-16T00:50:01;7.80;;;2.60;;
5587;SDS011;2816;49.778;9.986;2024-01-16T00:52:28;4.37;;;2.67;;
5587;SDS011;2816;49.778;9.986;2024-01-16T00:54:56;9.80;;;2.70;;
5587;SDS011;2816;49.778;9.986;2024-01-16T00:57:23;5.23;;;3.03;;
5587;SDS011;2816;49.778;9.986;2024-01-16T00:59:51;3.97;;;2.57;;
5587;SDS011;2816;49.778;9.986;2024-01-16T01:02:17;5.73;;;3.80;;
5587;SDS011;2816;49.778;9.986;2024-01-16T01:04:44;3.23;;;2.67;;
5587;SDS011;2816;49.778;9.986;2024-01-16T01:07:12;6.27;;;2.87;;
5587;SDS011;2816;49.778;9.986;2024-01-16T01:09:40;7.43;;;2.93;;
5587;SDS011;2816;49.778;9.986;2024-01-16T01:12:08;8.23;;;2.67;;
5587;SDS011;2816;49.778;9.986;2024-01-16T01:14:35;8.60;;;3.30;;
5587;SDS011;2816;49.778;9.986;2024-01-16T01:17:02;5.33;;;3.00;;
5587;SDS011;2816;49.778;9.986;2024-01-16T01:19:30;4.37;;;2.90;;
5587;SDS011;2816;49.778;9.986;2024-01-16T01:21:57;5.10;;;3.27;;
5587;SDS011;2816;49.778;9.986;2024-01-16T01:24:24;6.43;;;2.40;;
5587;SDS011;2816;49.778;9.986;2024-01-16T01:26:50;4.03;;;3.00;;
5587;SDS011;2816;49.778;9.986;2024-01-16T01:29:19;5.20;;;3.40;;
5587;SDS011;2816;49.778;9.986;2024-01-16T01:31:46;4.83;;;2.83;;
5587;SDS011;2816;49.778;9.986;2024-01-16T01:34:13;8.10;;;3.60;;
5587;SDS011;2816;49.778;9.986;2024-01-16T01:36:40;6.70;;;2.67;;
5587;SDS011;2816;49.778;9.986;2024-01-16T01:39:08;8.33;;;3.03;;
5587;SDS011;2816;49.778;9.986;2024-01-16T01:41:37;11.30;;;3.40;;
5587;SDS011;2816;49.778;9.986;2024-01-16T01:44:04;2.67;;;2.30;;
5587;SDS011;2816;49.778;9.986;2024-01-16T01:46:33;6.60;;;3.53;;
5587;SDS011;2816;49.778;9.986;2024-01-16T01:49:01;9.10;;;4.00;;
5587;SDS011;2816;49.778;9.986;2024-01-16T01:51:29;4.70;;;3.03;;
5587;SDS011;2816;49.778;9.986;2024-01-16T01:53:56;5.10;;;3.27;;
5587;SDS011;2816;49.778;9.986;2024-01-16T01:56:24;6.13;;;2.90;;
5587;SDS011;2816;49.778;9.986;2024-01-16T01:58:53;4.87;;;3.57;;
5587;SDS011;2816;49.778;9.986;2024-01-16T02:01:22;7.60;;;3.50;;
5587;SDS011;2816;49.778;9.986;2024-01-16T02:03:51;8.10;;;2.80;;
5587;SDS011;2816;49.778;9.986;2024-01-16T02:06:21;4.00;;;2.93;;
5587;SDS011;2816;49.778;9.986;2024-01-16T02:08:48;6.80;;;3.53;;
5587;SDS011;2816;49.778;9.986;2024-01-16T02:11:14;2.70;;;2.50;;
5587;SDS011;2816;49.778;9.986;2024-01-16T02:13:41;4.00;;;3.60;;
5587;SDS011;2816;49.778;9.986;2024-01-16T02:16:17;9.83;;;3.67;;
5587;SDS011;2816;49.778;9.986;2024-01-16T02:18:44;9.63;;;3.87;;
5587;SDS011;2816;49.778;9.986;2024-01-16T02:21:13;4.30;;;2.90;;
5587;SDS011;2816;49.778;9.986;2024-01-16T02:23:45;4.80;;;3.20;;
5587;SDS011;2816;49.778;9.986;2024-01-16T02:26:12;7.23;;;3.30;;
5587;SDS011;2816;49.778;9.986;2024-01-16T02:28:40;10.83;;;4.27;;
5587;SDS011;2816;49.778;9.986;2024-01-16T02:31:07;6.53;;;3.37;;
5587;SDS011;2816;49.778;9.986;2024-01-16T02:33:34;3.50;;;2.73;;
5587;SDS011;2816;49.778;9.986;2024-01-16T02:36:01;5.83;;;2.77;;
5587;SDS011;2816;49.778;9.986;2024-01-16T02:38:28;6.37;;;3.03;;
5587;SDS011;2816;49.778;9.986;2024-01-16T02:40:57;7.17;;;3.03;;
5587;SDS011;2816;49.778;9.986;2024-01-16T02:43:24;4.60;;;3.20;;
5587;SDS011;2816;49.778;9.986;2024-01-16T02:45:51;4.20;;;3.67;;
5587;SDS011;2816;49.778;9.986;2024-01-16T02:48:19;7.20;;;2.90;;
5587;SDS011;2816;49.778;9.986;2024-01-16T02:50:46;15.10;;;5.00;;
5587;SDS011;2816;49.778;9.986;2024-01-16T02:53:13;3.53;;;3.10;;
5587;SDS011;2816;49.778;9.986;2024-01-16T02:55:40;6.53;;;3.50;;
5587;SDS011;2816;49.778;9.986;2024-01-16T02:58:08;5.87;;;3.27;;
5587;SDS011;2816;49.778;9.986;2024-01-16T03:00:35;5.33;;;3.50;;
5587;SDS011;2816;49.778;9.986;2024-01-16T03:03:03;7.13;;;3.70;;
5587;SDS011;2816;49.778;9.986;2024-01-16T03:05:30;5.77;;;3.60;;
5587;SDS011;2816;49.778;9.986;2024-01-16T03:07:57;5.43;;;3.23;;
5587;SDS011;2816;49.778;9.986;2024-01-16T03:10:24;3.63;;;1.90;;
5587;SDS011;2816;49.778;9.986;2024-01-16T03:12:51;3.03;;;2.63;;
5587;SDS011;2816;49.778;9.986;2024-01-16T03:15:19;7.00;;;4.67;;
5587;SDS011;2816;49.778;9.986;2024-01-16T03:17:47;11.90;;;4.60;;
5587;SDS011;2816;49.778;9.986;2024-01-16T03:20:14;7.60;;;4.27;;
5587;SDS011;2816;49.778;9.986;2024-01-16T03:22:42;5.93;;;4.50;;
5587;SDS011;2816;49.778;9.986;2024-01-16T03:25:09;2.53;;;1.83;;
5587;SDS011;2816;49.778;9.986;2024-01-16T03:27:37;12.63;;;5.10;;
5587;SDS011;2816;49.778;9.986;2024-01-16T03:30:04;2.03;;;1.83;;
5587;SDS011;2816;49.778;9.986;2024-01-16T03:32:34;7.50;;;4.00;;
5587;SDS011;2816;49.778;9.986;2024-01-16T03:35:01;9.53;;;5.43;;
5587;SDS011;2816;49.778;9.986;2024-01-16T03:37:28;10.73;;;5.17;;
5587;SDS011;2816;49.778;9.986;2024-01-16T03:39:55;11.10;;;5.47;;
5587;SDS011;2816;49.778;9.986;2024-01-16T03:42:23;8.83;;;5.30;;
5587;SDS011;2816;49.778;9.986;2024-01-16T03:44:50;9.73;;;5.70;;
5587;SDS011;2816;49.778;9.986;2024-01-16T03:47:17;3.00;;;2.03;;
5587;SDS011;2816;49.778;9.986;2024-01-16T03:49:45;9.23;;;6.00;;
5587;SDS011;2816;49.778;9.986;2024-01-16T03:52:12;13.10;;;4.70;;
5587;SDS011;2816;49.778;9.986;2024-01-16T03:54:39;6.20;;;4.50;;
5587;SDS011;2816;49.778;9.986;2024-01-16T03:57:06;8.00;;;5.47;;
5587;SDS011;2816;49.778;9.986;2024-01-16T03:59:35;8.97;;;5.80;;
5587;SDS011;2816;49.778;9.986;2024-01-16T04:02:04;7.10;;;4.73;;
5587;SDS011;2816;49.778;9.986;2024-01-16T04:04:32;7.97;;;5.00;;
5587;SDS011;2816;49.778;9.986;2024-01-16T04:07:00;6.20;;;4.43;;
5587;SDS011;2816;49.778;9.986;2024-01-16T04:09:27;13.30;;;6.50;;
5587;SDS011;2816;49.778;9.986;2024-01-16T04:11:55;4.17;;;3.10;;
5587;SDS011;2816;49.778;9.986;2024-01-16T04:14:22;9.77;;;5.37;;
5587;SDS011;2816;49.778;9.986;2024-01-16T04:16:48;8.60;;;5.70;;
5587;SDS011;2816;49.778;9.986;2024-01-16T04:19:15;11.03;;;6.50;;
5587;SDS011;2816;49.778;9.986;2024-01-16T04:21:42;9.53;;;5.87;;
5587;SDS011;2816;49.778;9.986;2024-01-16T04:24:10;10.23;;;5.20;;
5587;SDS011;2816;49.778;9.986;2024-01-16T04:26:37;8.30;;;4.93;;
5587;SDS011;2816;49.778;9.986;2024-01-16T04:29:04;9.77;;;5.40;;
5587;SDS011;2816;49.778;9.986;2024-01-16T04:31:32;8.80;;;5.73;;
5587;SDS011;2816;49.778;9.986;2024-01-16T04:34:05;7.10;;;4.80;;
5587;SDS011;2816;49.778;9.986;2024-01-16T04:36:32;5.17;;;4.37;;
5587;SDS011;2816;49.778;9.986;2024-01-16T04:38:59;7.13;;;5.17;;
5587;SDS011;2816;49.778;9.986;2024-01-16T04:41:27;9.07;;;5.90;;
5587;SDS011;2816;49.778;9.986;2024-01-16T04:43:54;9.73;;;4.40;;
5587;SDS011;2816;49.778;9.986;2024-01-16T04:46:21;12.63;;;4.93;;
5587;SDS011;2816;49.778;9.986;2024-01-16T04:48:48;12.50;;;5.00;;
5587;SDS011;2816;49.778;9.986;2024-01-16T04:51:16;8.00;;;5.03;;
5587;SDS011;2816;49.778;9.986;2024-01-16T04:53:43;10.33;;;4.93;;
5587;SDS011;2816;49.778;9.986;2024-01-16T04:56:09;9.73;;;5.73;;
5587;SDS011;2816;49.778;9.986;2024-01-16T04:58:38;9.17;;;5.00;;
5587;SDS011;2816;49.778;9.986;2024-01-16T05:01:05;8.43;;;5.23;;
5587;SDS011;2816;49.778;9.986;2024-01-16T05:03:33;8.83;;;4.90;;
5587;SDS011;2816;49.778;9.986;2024-01-16T05:06:00;11.00;;;5.10;;
5587;SDS011;2816;49.778;9.986;2024-01-16T05:08:27;9.90;;;4.70;;
5587;SDS011;2816;49.778;9.986;2024-01-16T05:10:53;8.97;;;5.10;;
5587;SDS011;2816;49.778;9.986;2024-01-16T05:13:20;9.60;;;5.00;;
5587;SDS011;2816;49.778;9.986;2024-01-16T05:15:48;7.20;;;4.83;;
5587;SDS011;2816;49.778;9.986;2024-01-16T05:18:15;8.90;;;5.00;;
5587;SDS011;2816;49.778;9.986;2024-01-16T05:20:42;7.47;;;5.03;;
5587;SDS011;2816;49.778;9.986;2024-01-16T05:23:09;8.40;;;5.13;;
5587;SDS011;2816;49.778;9.986;2024-01-16T05:25:36;8.73;;;5.73;;
5587;SDS011;2816;49.778;9.986;2024-01-16T05:28:04;10.73;;;6.30;;
5587;SDS011;2816;49.778;9.986;2024-01-16T05:30:32;6.17;;;5.00;;
5587;SDS011;2816;49.778;9.986;2024-01-16T05:33:00;9.23;;;5.80;;
5587;SDS011;2816;49.778;9.986;2024-01-16T05:35:27;7.10;;;5.30;;
5587;SDS011;2816;49.778;9.986;2024-01-16T05:37:54;9.50;;;5.27;;
5587;SDS011;2816;49.778;9.986;2024-01-16T05:40:21;14.47;;;6.93;;
5587;SDS011;2816;49.778;9.986;2024-01-16T05:42:48;10.07;;;5.40;;
5587;SDS011;2816;49.778;9.986;2024-01-16T05:45:15;9.97;;;6.37;;
5587;SDS011;2816;49.778;9.986;2024-01-16T05:47:42;16.77;;;5.83;;
5587;SDS011;2816;49.778;9.986;2024-01-16T05:50:11;10.20;;;5.80;;
5587;SDS011;2816;49.778;9.986;2024-01-16T05:52:38;10.93;;;5.20;;
5587;SDS011;2816;49.778;9.986;2024-01-16T05:55:06;5.37;;;3.80;;
5587;SDS011;2816;49.778;9.986;2024-01-16T05:57:33;12.23;;;5.00;;
5587;SDS011;2816;49.778;9.986;2024-01-16T06:00:01;8.73;;;5.70;;
5587;SDS011;2816;49.778;9.986;2024-01-16T06:02:29;9.97;;;4.97;;
5587;SDS011;2816;49.778;9.986;2024-01-16T06:04:56;3.70;;;2.83;;
5587;SDS011;2816;49.778;9.986;2024-01-16T06:07:24;3.10;;;2.40;;
5587;SDS011;2816;49.778;9.986;2024-01-16T06:09:52;8.80;;;4.13;;
5587;SDS011;2816;49.778;9.986;2024-01-16T06:12:19;12.67;;;6.13;;
5587;SDS011;2816;49.778;9.986;2024-01-16T06:14:47;5.63;;;4.40;;
5587;SDS011;2816;49.778;9.986;2024-01-16T06:17:14;8.93;;;4.70;;
5587;SDS011;2816;49.778;9.986;2024-01-16T06:19:40;10.80;;;6.37;;
5587;SDS011;2816;49.778;9.986;2024-01-16T06:22:07;9.40;;;3.03;;
5587;SDS011;2816;49.778;9.986;2024-01-16T06:24:36;10.90;;;5.60;;
5587;SDS011;2816;49.778;9.986;2024-01-16T06:27:04;11.30;;;5.30;;
5587;SDS011;2816;49.778;9.986;2024-01-16T06:29:32;12.00;;;6.97;;
5587;SDS011;2816;49.778;9.986;2024-01-16T06:31:59;10.37;;;5.60;;
5587;SDS011;2816;49.778;9.986;2024-01-16T06:34:26;13.10;;;6.00;;
5587;SDS011;2816;49.778;9.986;2024-01-16T06:36:53;8.30;;;6.17;;
5587;SDS011;2816;49.778;9.986;2024-01-16T06:39:20;15.87;;;6.70;;
5587;SDS011;2816;49.778;9.986;2024-01-16T06:41:49;8.13;;;6.10;;
5587;SDS011;2816;49.778;9.986;2024-01-16T06:44:16;8.93;;;6.40;;
5587;SDS011;2816;49.778;9.986;2024-01-16T06:46:42;12.27;;;7.00;;
5587;SDS011;2816;49.778;9.986;2024-01-16T06:49:09;10.20;;;6.50;;
5587;SDS011;2816;49.778;9.986;2024-01-16T06:51:36;15.63;;;7.30;;
5587;SDS011;2816;49.778;9.986;2024-01-16T06:54:03;14.40;;;7.10;;
5587;SDS011;2816;49.778;9.986;2024-01-16T06:56:31;16.30;;;6.80;;
5587;SDS011;2816;49.778;9.986;2024-01-16T06:59:00;10.53;;;7.17;;
5587;SDS011;2816;49.778;9.986;2024-01-16T07:01:26;12.87;;;6.47;;
5587;SDS011;2816;49.778;9.986;2024-01-16T07:03:53;8.03;;;5.77;;
5587;SDS011;2816;49.778;9.986;2024-01-16T07:06:20;9.87;;;5.70;;
5587;SDS011;2816;49.778;9.986;2024-01-16T07:08:47;7.50;;;5.30;;
5587;SDS011;2816;49.778;9.986;2024-01-16T07:11:14;8.17;;;4.90;;
5587;SDS011;2816;49.778;9.986;2024-01-16T07:13:41;8.30;;;4.90;;
5587;SDS011;2816;49.778;9.986;2024-01-16T07:16:11;10.60;;;5.63;;
5587;SDS011;2816;49.778;9.986;2024-01-16T07:18:39;8.63;;;5.40;;
5587;SDS011;2816;49.778;9.986;2024-01-16T07:21:15;9.70;;;6.20;;
5587;SDS011;2816;49.778;9.986;2024-01-16T07:23:42;8.47;;;5.37;;
5587;SDS011;2816;49.778;9.986;2024-01-16T07:26:10;10.37;;;6.20;;
5587;SDS011;2816;49.778;9.986;2024-01-16T07:28:36;15.47;;;8.63;;
5587;SDS011;2816;49.778;9.986;2024-01-16T07:31:03;11.83;;;7.20;;
5587;SDS011;2816;49.778;9.986;2024-01-16T07:33:32;11.87;;;7.40;;
5587;SDS011;2816;49.778;9.986;2024-01-16T07:35:59;10.43;;;7.27;;
5587;SDS011;2816;49.778;9.986;2024-01-16T07:38:26;10.70;;;6.00;;
5587;SDS011;2816;49.778;9.986;2024-01-16T07:40:53;11.50;;;7.20;;
5587;SDS011;2816;49.778;9.986;2024-01-16T07:43:21;10.53;;;6.10;;
5587;SDS011;2816;49.778;9.986;2024-01-16T07:45:48;10.73;;;6.60;;
5587;SDS011;2816;49.778;9.986;2024-01-16T07:48:14;12.33;;;6.93;;
5587;SDS011;2816;49.778;9.986;2024-01-16T07:50:43;12.20;;;5.67;;
5587;SDS011;2816;49.778;9.986;2024-01-16T07:53:10;7.93;;;5.60;;
5587;SDS011;2816;49.778;9.986;2024-01-16T07:55:37;8.27;;;5.87;;
5587;SDS011;2816;49.778;9.986;2024-01-16T07:58:05;12.10;;;6.97;;
5587;SDS011;2816;49.778;9.986;2024-01-16T08:00:31;11.57;;;6.43;;
5587;SDS011;2816;49.778;9.986;2024-01-16T08:02:58;10.53;;;5.33;;
5587;SDS011;2816;49.778;9.986;2024-01-16T08:05:25;17.07;;;6.50;;
5587;SDS011;2816;49.778;9.986;2024-01-16T08:07:54;12.07;;;6.60;;
5587;SDS011;2816;49.778;9.986;2024-01-16T08:10:21;8.77;;;6.70;;
5587;SDS011;2816;49.778;9.986;2024-01-16T08:12:47;13.47;;;7.10;;
5587;SDS011;2816;49.778;9.986;2024-01-16T08:15:14;10.47;;;5.90;;
5587;SDS011;2816;49.778;9.986;2024-01-16T08:17:41;12.17;;;6.50;;
5587;SDS011;2816;49.778;9.986;2024-01-16T08:20:09;9.90;;;6.80;;
5587;SDS011;2816;49.778;9.986;2024-01-16T08:22:36;9.00;;;5.63;;
5587;SDS011;2816;49.778;9.986;2024-01-16T08:25:05;10.90;;;5.73;;
5587;SDS011;2816;49.778;9.986;2024-01-16T08:27:33;10.80;;;5.37;;
5587;SDS011;2816;49.778;9.986;2024-01-16T08:30:00;10.50;;;6.50;;
5587;SDS011;2816;49.778;9.986;2024-01-16T08:32:27;14.17;;;6.50;;
5587;SDS011;2816;49.778;9.986;2024-01-16T08:34:54;8.20;;;4.80;;
5587;SDS011;2816;49.778;9.986;2024-01-16T08:37:21;8.30;;;6.03;;
5587;SDS011;2816;49.778;9.986;2024-01-16T08:39:50;12.60;;;6.60;;
5587;SDS011;2816;49.778;9.986;2024-01-16T08:42:19;9.27;;;5.70;;
5587;SDS011;2816;49.778;9.986;2024-01-16T08:44:45;8.93;;;6.03;;
5587;SDS011;2816;49.778;9.986;2024-01-16T08:47:12;8.23;;;5.03;;
5587;SDS011;2816;49.778;9.986;2024-01-16T08:49:39;12.53;;;6.07;;
5587;SDS011;2816;49.778;9.986;2024-01-16T08:52:06;11.33;;;5.20;;
5587;SDS011;2816;49.778;9.986;2024-01-16T08:54:34;14.53;;;6.23;;
5587;SDS011;2816;49.778;9.986;2024-01-16T08:57:01;9.77;;;6.00;;
5587;SDS011;2816;49.778;9.986;2024-01-16T08:59:30;9.60;;;5.77;;
5587;SDS011;2816;49.778;9.986;2024-01-16T09:01:57;10.17;;;5.60;;
5587;SDS011;2816;49.778;9.986;2024-01-16T09:04:24;12.40;;;5.93;;
5587;SDS011;2816;49.778;9.986;2024-01-16T09:06:51;8.23;;;5.50;;
5587;SDS011;2816;49.778;9.986;2024-01-16T09:09:18;17.43;;;6.73;;
5587;SDS011;2816;49.778;9.986;2024-01-16T09:11:46;9.73;;;6.57;;
5587;SDS011;2816;49.778;9.986;2024-01-16T09:14:13;10.20;;;5.50;;
5587;SDS011;2816;49.778;9.986;2024-01-16T09:16:41;6.97;;;5.13;;
5587;SDS011;2816;49.778;9.986;2024-01-16T09:19:08;13.90;;;5.30;;
5587;SDS011;2816;49.778;9.986;2024-01-16T09:21:35;11.27;;;4.93;;
5587;SDS011;2816;49.778;9.986;2024-01-16T09:24:02;9.00;;;5.77;;
5587;SDS011;2816;49.778;9.986;2024-01-16T09:26:30;9.60;;;5.50;;
5587;SDS011;2816;49.778;9.986;2024-01-16T09:28:57;6.43;;;3.90;;
5587;SDS011;2816;49.778;9.986;2024-01-16T09:31:24;11.30;;;5.60;;
5587;SDS011;2816;49.778;9.986;2024-01-16T09:33:52;9.57;;;5.40;;
5587;SDS011;2816;49.778;9.986;2024-01-16T09:36:19;6.37;;;3.10;;
5587;SDS011;2816;49.778;9.986;2024-01-16T09:38:46;11.77;;;6.17;;
5587;SDS011;2816;49.778;9.986;2024-01-16T09:41:13;8.30;;;5.07;;
5587;SDS011;2816;49.778;9.986;2024-01-16T09:43:40;9.57;;;6.03;;
5587;SDS011;2816;49.778;9.986;2024-01-16T09:46:07;9.20;;;6.10;;
5587;SDS011;2816;49.778;9.986;2024-01-16T09:48:35;8.40;;;5.20;;
5587;SDS011;2816;49.778;9.986;2024-01-16T09:51:04;7.60;;;5.20;;
5587;SDS011;2816;49.778;9.986;2024-01-16T09:53:31;6.93;;;5.07;;
5587;SDS011;2816;49.778;9.986;2024-01-16T09:55:59;9.63;;;4.47;;
5587;SDS011;2816;49.778;9.986;2024-01-16T09:58:30;8.43;;;5.77;;
5587;SDS011;2816;49.778;9.986;2024-01-16T10:01:02;10.50;;;5.80;;
5587;SDS011;2816;49.778;9.986;2024-01-16T10:03:30;12.73;;;4.97;;
5587;SDS011;2816;49.778;9.986;2024-01-16T10:05:57;6.63;;;5.10;;
5587;SDS011;2816;49.778;9.986;2024-01-16T10:08:27;7.07;;;4.87;;
5587;SDS011;2816;49.778;9.986;2024-01-16T10:10:56;7.90;;;4.90;;
5587;SDS011;2816;49.778;9.986;2024-01-16T10:13:23;7.33;;;4.70;;
5587;SDS011;2816;49.778;9.986;2024-01-16T10:15:51;9.40;;;5.30;;
5587;SDS011;2816;49.778;9.986;2024-01-16T10:18:23;7.00;;;4.70;;
5587;SDS011;2816;49.778;9.986;2024-01-16T10:20:51;7.10;;;4.60;;
5587;SDS011;2816;49.778;9.986;2024-01-16T10:23:24;9.93;;;5.10;;
5587;SDS011;2816;49.778;9.986;2024-01-16T10:26:06;7.57;;;4.97;;
5587;SDS011;2816;49.778;9.986;2024-01-16T10:28:34;8.20;;;5.20;;
5587;SDS011;2816;49.778;9.986;2024-01-16T10:31:01;5.77;;;4.50;;
5587;SDS011;2816;49.778;9.986;2024-01-16T10:33:28;8.43;;;4.40;;
5587;SDS011;2816;49.778;9.986;2024-01-16T10:36:06;7.10;;;3.97;;
5587;SDS011;2816;49.778;9.986;2024-01-16T10:38:37;11.50;;;5.20;;
5587;SDS011;2816;49.778;9.986;2024-01-16T10:41:08;8.70;;;5.07;;
5587;SDS011;2816;49.778;9.986;2024-01-16T10:43:35;6.47;;;4.07;;
5587;SDS011;2816;49.778;9.986;2024-01-16T10:46:09;7.90;;;4.87;;
5587;SDS011;2816;49.778;9.986;2024-01-16T10:48:38;11.87;;;5.30;;
5587;SDS011;2816;49.778;9.986;2024-01-16T10:51:06;7.10;;;4.73;;
5587;SDS011;2816;49.778;9.986;2024-01-16T10:53:36;11.27;;;4.27;;
5587;SDS011;2816;49.778;9.986;2024-01-16T10:56:09;6.60;;;3.77;;
5587;SDS011;2816;49.778;9.986;2024-01-16T10:58:38;7.83;;;4.83;;
5587;SDS011;2816;49.778;9.986;2024-01-16T11:01:07;8.30;;;5.00;;
5587;SDS011;2816;49.778;9.986;2024-01-16T11:03:38;9.40;;;5.00;;
5587;SDS011;2816;49.778;9.986;2024-01-16T11:06:09;9.03;;;5.20;;
5587;SDS011;2816;49.778;9.986;2024-01-16T11:08:38;9.10;;;5.00;;
5587;SDS011;2816;49.778;9.986;2024-01-16T11:11:06;6.87;;;4.50;;
5587;SDS011;2816;49.778;9.986;2024-01-16T11:13:35;3.77;;;3.20;;
5587;SDS011;2816;49.778;9.986;2024-01-16T11:16:02;7.90;;;4.63;;
5587;SDS011;2816;49.778;9.986;2024-01-16T11:18:30;13.97;;;5.30;;
5587;SDS011;2816;49.778;9.986;2024-01-16T11:20:58;3.07;;;2.83;;
5587;SDS011;2816;49.778;9.986;2024-01-16T11:23:26;4.80;;;3.10;;
5587;SDS011;2816;49.778;9.986;2024-01-16T11:25:53;12.20;;;4.77;;
5587;SDS011;2816;49.778;9.986;2024-01-16T11:28:20;7.50;;;5.47;;
5587;SDS011;2816;49.778;9.986;2024-01-16T11:30:54;7.13;;;4.57;;
5587;SDS011;2816;49.778;9.986;2024-01-16T11:39:21;11.17;;;4.83;;
5587;SDS011;2816;49.778;9.986;2024-01-16T11:41:50;7.60;;;5.00;;
5587;SDS011;2816;49.778;9.986;2024-01-16T11:47:17;2.40;;;1.97;;
5587;SDS011;2816;49.778;9.986;2024-01-16T11:49:46;7.13;;;2.67;;
5587;SDS011;2816;49.778;9.986;2024-01-16T11:52:13;6.70;;;5.10;;
5587;SDS011;2816;49.778;9.986;2024-01-16T11:54:41;7.40;;;4.30;;
5587;SDS011;2816;49.778;9.986;2024-01-16T11:57:26;7.47;;;5.20;;
5587;SDS011;2816;49.778;9.986;2024-01-16T12:00:18;10.77;;;4.10;;
5587;SDS011;2816;49.778;9.986;2024-01-16T12:03:00;10.87;;;4.00;;
5587;SDS011;2816;49.778;9.986;2024-01-16T12:05:28;4.43;;;2.90;;
5587;SDS011;2816;49.778;9.986;2024-01-16T12:07:55;4.63;;;3.60;;
5587;SDS011;2816;49.778;9.986;2024-01-16T12:10:22;11.07;;;4.60;;
5587;SDS011;2816;49.778;9.986;2024-01-16T12:12:51;5.10;;;3.17;;
5587;SDS011;2816;49.778;9.986;2024-01-16T12:15:24;7.50;;;4.93;;
5587;SDS011;2816;49.778;9.986;2024-01-16T12:17:56;8.10;;;4.60;;
5587;SDS011;2816;49.778;9.986;2024-01-16T12:20:24;4.27;;;2.07;;
5587;SDS011;2816;49.778;9.986;2024-01-16T12:22:59;4.83;;;3.63;;
5587;SDS011;2816;49.778;9.986;2024-01-16T12:25:27;8.73;;;5.20;;
5587;SDS011;2816;49.778;9.986;2024-01-16T12:27:55;4.10;;;2.57;;
5587;SDS011;2816;49.778;9.986;2024-01-16T12:30:24;7.03;;;4.03;;
5587;SDS011;2816;49.778;9.986;2024-01-16T12:33:03;9.83;;;5.40;;
5587;SDS011;2816;49.778;9.986;2024-01-16T12:35:32;9.53;;;5.40;;
5587;SDS011;2816;49.778;9.986;2024-01-16T12:38:00;9.23;;;5.10;;
5587;SDS011;2816;49.778;9.986;2024-01-16T12:40:27;8.30;;;3.87;;
5587;SDS011;2816;49.778;9.986;2024-01-16T12:42:54;8.90;;;3.90;;
5587;SDS011;2816;49.778;9.986;2024-01-16T12:45:21;4.67;;;2.77;;
5587;SDS011;2816;49.778;9.986;2024-01-16T12:47:51;6.57;;;3.60;;
5587;SDS011;2816;49.778;9.986;2024-01-16T12:50:21;6.50;;;4.20;;
5587;SDS011;2816;49.778;9.986;2024-01-16T12:52:50;8.17;;;3.70;;
5587;SDS011;2816;49.778;9.986;2024-01-16T12:55:26;10.97;;;4.07;;
5587;SDS011;2816;49.778;9.986;2024-01-16T13:00:38;6.93;;;3.97;;
5587;SDS011;2816;49.778;9.986;2024-01-16T13:03:05;8.80;;;4.67;;
5587;SDS011;2816;49.778;9.986;2024-01-16T13:05:34;6.70;;;3.90;;
5587;SDS011;2816;49.778;9.986;2024-01-16T13:08:01;11.83;;;5.30;;
5587;SDS011;2816;49.778;9.986;2024-01-16T13:10:29;8.40;;;4.53;;
5587;SDS011;2816;49.778;9.986;2024-01-16T13:15:39;9.40;;;4.53;;
5587;SDS011;2816;49.778;9.986;2024-01-16T13:18:16;9.83;;;4.10;;
5587;SDS011;2816;49.778;9.986;2024-01-16T13:20:46;6.53;;;4.50;;
5587;SDS011;2816;49.778;9.986;2024-01-16T13:23:13;16.63;;;4.60;;
5587;SDS011;2816;49.778;9.986;2024-01-16T13:25:42;13.33;;;4.77;;
5587;SDS011;2816;49.778;9.986;2024-01-16T13:28:09;10.27;;;4.93;;
5587;SDS011;2816;49.778;9.986;2024-01-16T13:30:36;7.47;;;4.00;;
5587;SDS011;2816;49.778;9.986;2024-01-16T13:33:03;8.50;;;4.47;;
5587;SDS011;2816;49.778;9.986;2024-01-16T13:35:30;12.23;;;5.20;;
5587;SDS011;2816;49.778;9.986;2024-01-16T13:37:59;8.50;;;4.10;;
5587;SDS011;2816;49.778;9.986;2024-01-16T13:40:27;8.80;;;4.60;;
5587;SDS011;2816;49.778;9.986;2024-01-16T13:42:53;7.80;;;5.07;;
5587;SDS011;2816;49.778;9.986;2024-01-16T13:45:20;8.60;;;5.10;;
5587;SDS011;2816;49.778;9.986;2024-01-16T13:47:48;9.47;;;4.87;;
5587;SDS011;2816;49.778;9.986;2024-01-16T13:50:14;9.43;;;5.17;;
5587;SDS011;2816;49.778;9.986;2024-01-16T13:52:42;10.63;;;4.80;;
5587;SDS011;2816;49.778;9.986;2024-01-16T13:55:11;8.30;;;4.60;;
5587;SDS011;2816;49.778;9.986;2024-01-16T13:57:38;7.47;;;4.50;;
5587;SDS011;2816;49.778;9.986;2024-01-16T14:00:06;6.53;;;4.17;;
5587;SDS011;2816;49.778;9.986;2024-01-16T14:02:38;10.30;;;4.83;;
5587;SDS011;2816;49.778;9.986;2024-01-16T14:05:06;8.37;;;3.67;;
5587;SDS011;2816;49.778;9.986;2024-01-16T14:07:35;7.33;;;4.30;;
5587;SDS011;2816;49.778;9.986;2024-01-16T14:10:03;7.07;;;4.57;;
5587;SDS011;2816;49.778;9.986;2024-01-16T14:12:32;10.07;;;4.50;;
5587;SDS011;2816;49.778;9.986;2024-01-16T14:15:00;8.93;;;4.83;;
5587;SDS011;2816;49.778;9.986;2024-01-16T14:17:29;8.20;;;4.50;;
5587;SDS011;2816;49.778;9.986;2024-01-16T14:19:56;8.13;;;4.80;;
5587;SDS011;2816;49.778;9.986;2024-01-16T14:22:22;6.33;;;3.50;;
5587;SDS011;2816;49.778;9.986;2024-01-16T14:24:49;6.90;;;3.97;;
5587;SDS011;2816;49.778;9.986;2024-01-16T14:27:17;12.30;;;4.70;;
5587;SDS011;2816;49.778;9.986;2024-01-16T14:29:45;6.90;;;4.00;;
5587;SDS011;2816;49.778;9.986;2024-01-16T14:32:12;6.40;;;4.17;;
5587;SDS011;2816;49.778;9.986;2024-01-16T14:34:39;11.40;;;5.27;;
5587;SDS011;2816;49.778;9.986;2024-01-16T14:37:06;8.67;;;4.67;;
5587;SDS011;2816;49.778;9.986;2024-01-16T14:39:33;23.23;;;4.90;;
5587;SDS011;2816;49.778;9.986;2024-01-16T14:42:01;12.03;;;4.77;;
5587;SDS011;2816;49.778;9.986;2024-01-16T14:44:28;7.20;;;5.23;;
5587;SDS011;2816;49.778;9.986;2024-01-16T14:46:56;10.83;;;5.80;;
5587;SDS011;2816;49.778;9.986;2024-01-16T14:49:23;7.97;;;4.67;;
5587;SDS011;2816;49.778;9.986;2024-01-16T14:51:56;7.67;;;4.47;;
5587;SDS011;2816;49.778;9.986;2024-01-16T14:54:23;12.07;;;5.30;;
5587;SDS011;2816;49.778;9.986;2024-01-16T14:56:50;8.37;;;5.20;;
5587;SDS011;2816;49.778;9.986;2024-01-16T14:59:17;11.63;;;5.37;;
5587;SDS011;2816;49.778;9.986;2024-01-16T15:01:44;8.90;;;5.03;;
5587;SDS011;2816;49.778;9.986;2024-01-16T15:04:12;11.23;;;4.70;;
5587;SDS011;2816;49.778;9.986;2024-01-16T15:06:39;11.80;;;5.27;;
5587;SDS011;2816;49.778;9.986;2024-01-16T15:09:06;13.03;;;6.23;;
5587;SDS011;2816;49.778;9.986;2024-01-16T15:11:35;7.07;;;5.27;;
5587;SDS011;2816;49.778;9.986;2024-01-16T15:14:02;14.00;;;5.90;;
5587;SDS011;2816;49.778;9.986;2024-01-16T15:16:29;8.40;;;5.70;;
5587;SDS011;2816;49.778;9.986;2024-01-16T15:18:56;8.90;;;4.67;;
5587;SDS011;2816;49.778;9.986;2024-01-16T15:21:25;11.53;;;4.90;;
5587;SDS011;2816;49.778;9.986;2024-01-16T15:23:51;11.37;;;5.80;;
5587;SDS011;2816;49.778;9.986;2024-01-16T15:26:18;8.83;;;4.83;;
5587;SDS011;2816;49.778;9.986;2024-01-16T15:28:47;11.07;;;6.00;;
5587;SDS011;2816;49.778;9.986;2024-01-16T15:31:14;12.97;;;5.80;;